Jamaica, VA (23079)

6:07 AM EDT on September 01, 2015 (GMT -0400)
Remlik | | Change Station
CLOSE
Current Station
Personal Weather Station
Location: Urbanna, VA
Elevation: 20 ft
Nearby Weather Stations

Elev 20 ft 37.68 °N, 76.62 °W | Updated 1 minute ago

Overcast
Overcast
70.6 °F
Feels Like 70.6 °F
N
0.0
Wind Variable Wind from North
Gusts 0.0 mph

Today
High -- | Low -- °F
--% Chance of Precip.
Yesterday
High -- | Low -- °F
Precip. -- in
6:36 AM 7:36 PM
Waning Gibbous, 90% visible
Pressure 30.05 in
Visibility 0.5 miles
Clouds Overcast 200 ft
Dew Point 70 °F
Humidity 98%
Rainfall 0.00 in
Snow Depth Not available.
UV 0 out of 12
Pollen 8.90 out of 12
Air Quality Not available.
Flu Activity Not available.
METAR KXSA 010955Z AUTO 00000KT 1/2SM FG OVC002 21/20 A3005 RMK AO2 T02100195
Pressure 30.05 in
Visibility 0.5 miles
Clouds Overcast 200 ft
Dew Point 70 °F
Humidity 98%
Rainfall 0.00 in
Snow Depth Not available.
UV 0 out of 12
Pollen 8.90 out of 12
Air Quality Not available.
Flu Activity Not available.
METAR KXSA 010955Z AUTO 00000KT 1/2SM FG OVC002 21/20 A3005 RMK AO2 T02100195

10-Day Weather Forecast

×

Almanac

Astronomy

Sep. 01, 2015 Rise Set
Actual Time
Civil Twilight
Nautical Twilight
Astronomical Twilight
Moon
Length of Visible Light
Length of Day
Tomorrow will be .
, % of the Moon is Illuminated

Today's Extremes

State Highs State Lows

Community

WunderPhotos

Upload Photos

1,851,501 photos uploaded!

WunderBlogs® & News

Nearby

Air Quality

  Air Quality AQ Index Pollutant
Not available.

Snow Depth

Station Depth Elevation

Earthquake Activity

City Distance Mag. Time & Date
Minimum magnitude displayed is 2.5.

Coastal Water Temperatures

Place Temperature

Stations

Nearby Weather Stations

Station Location Temp. Windchill Dew Point Humidity Wind Precip. Elev Updated Type